createdAt,value
2023-01-04T00:00:02.107Z,8.09
2023-01-04T00:01:02.190Z,8.06
2023-01-04T00:02:02.285Z,8.05
2023-01-04T00:03:02.207Z,8.05
2023-01-04T00:04:02.252Z,8.05
2023-01-04T00:05:02.066Z,8.05
2023-01-04T00:06:02.050Z,8.03
2023-01-04T00:07:02.095Z,7.98
2023-01-04T00:08:02.070Z,7.97
2023-01-04T00:09:02.006Z,8.01
2023-01-04T00:10:02.014Z,8.05
2023-01-04T00:11:01.987Z,8.09
2023-01-04T00:12:02.012Z,8.13
2023-01-04T00:13:02.025Z,8.15
2023-01-04T00:14:01.994Z,8.19
2023-01-04T00:15:01.983Z,8.23
2023-01-04T00:16:07.664Z,8.26
2023-01-04T00:17:01.936Z,8.24
2023-01-04T00:18:01.949Z,8.28
2023-01-04T00:19:01.912Z,8.33
2023-01-04T00:20:01.885Z,8.36
2023-01-04T00:21:02.104Z,8.38
2023-01-04T00:22:01.894Z,8.38
2023-01-04T00:23:01.930Z,8.37
2023-01-04T00:24:01.873Z,8.38
2023-01-04T00:25:01.860Z,8.42
2023-01-04T00:26:01.890Z,8.46
2023-01-04T00:27:01.848Z,8.46
2023-01-04T00:28:01.889Z,8.49
2023-01-04T00:29:01.805Z,8.51
2023-01-04T00:30:01.920Z,8.52
2023-01-04T00:31:01.847Z,8.52
2023-01-04T00:32:01.798Z,8.53
2023-01-04T00:33:01.767Z,8.55
2023-01-04T00:34:01.800Z,8.58
2023-01-04T00:35:01.722Z,8.58
2023-01-04T00:36:01.772Z,8.58
2023-01-04T00:37:01.800Z,8.58
2023-01-04T00:38:01.698Z,8.60
2023-01-04T00:39:01.679Z,8.58
2023-01-04T00:40:01.735Z,8.63
2023-01-04T00:41:01.664Z,8.64
2023-01-04T00:42:02.121Z,8.64
2023-01-04T00:43:01.712Z,8.66
2023-01-04T00:44:01.633Z,8.67
2023-01-04T00:45:01.624Z,8.70
2023-01-04T00:46:01.702Z,8.69
2023-01-04T00:47:01.620Z,8.73
2023-01-04T00:48:01.947Z,8.70
2023-01-04T00:49:01.603Z,8.69
2023-01-04T00:50:01.685Z,8.69
2023-01-04T00:51:01.615Z,8.67
2023-01-04T00:52:01.637Z,8.67
2023-01-04T00:53:01.555Z,8.66
2023-01-04T00:54:01.527Z,8.66
2023-01-04T00:55:01.564Z,8.64
2023-01-04T00:56:01.525Z,8.64
2023-01-04T00:57:01.555Z,8.63
2023-01-04T00:58:01.489Z,8.63
2023-01-04T00:59:01.462Z,8.63
2023-01-04T01:00:02.153Z,8.63
2023-01-04T01:01:01.461Z,8.63
2023-01-04T01:02:01.554Z,8.64
2023-01-04T01:03:01.653Z,8.64
2023-01-04T01:04:01.571Z,8.61
2023-01-04T01:05:01.434Z,8.63
2023-01-04T01:06:01.425Z,8.64
2023-01-04T01:07:01.409Z,8.66
2023-01-04T01:08:01.388Z,8.66
2023-01-04T01:09:01.365Z,8.64
2023-01-04T01:10:01.378Z,8.66
2023-01-04T01:11:01.336Z,8.66
2023-01-04T01:12:01.567Z,8.64
2023-01-04T01:13:01.489Z,8.63
2023-01-04T01:14:01.318Z,8.60
2023-01-04T01:15:01.306Z,8.58
2023-01-04T01:16:01.404Z,8.56
2023-01-04T01:17:01.337Z,8.55
2023-01-04T01:18:01.301Z,8.53
2023-01-04T01:19:01.353Z,8.52
2023-01-04T01:20:01.538Z,8.51
2023-01-04T01:21:01.229Z,8.51
2023-01-04T01:22:01.227Z,8.49
2023-01-04T01:23:01.559Z,8.49
2023-01-04T01:24:01.257Z,8.48
2023-01-04T01:25:01.198Z,8.46
2023-01-04T01:26:01.188Z,8.46
2023-01-04T01:27:01.167Z,8.44
2023-01-04T01:28:01.230Z,8.44
2023-01-04T01:29:01.169Z,8.42
2023-01-04T01:30:01.169Z,8.41
2023-01-04T01:31:06.620Z,8.41
2023-01-04T01:32:01.289Z,8.37
2023-01-04T01:33:01.196Z,8.37
2023-01-04T01:34:01.135Z,8.41
2023-01-04T01:35:01.056Z,8.36
2023-01-04T01:36:01.077Z,8.37
2023-01-04T01:37:01.080Z,8.36
2023-01-04T01:38:01.067Z,8.36
2023-01-04T01:39:01.117Z,8.33
2023-01-04T01:40:01.070Z,8.31
2023-01-04T01:41:01.088Z,8.31
2023-01-04T01:42:01.033Z,8.31
2023-01-04T01:43:01.007Z,8.30
2023-01-04T01:44:01.041Z,8.31
2023-01-04T01:45:01.005Z,8.30
2023-01-04T01:46:01.043Z,8.33
2023-01-04T01:47:01.025Z,8.33
2023-01-04T01:48:01.011Z,8.31
2023-01-04T01:49:00.957Z,8.31
2023-01-04T01:50:00.980Z,8.31
2023-01-04T01:51:00.904Z,8.31
2023-01-04T01:52:00.907Z,8.34
2023-01-04T01:53:00.947Z,8.33
2023-01-04T01:54:00.892Z,8.33
2023-01-04T01:55:00.919Z,8.30
2023-01-04T01:56:00.857Z,8.33
2023-01-04T01:57:00.849Z,8.31
2023-01-04T01:58:00.897Z,8.30
2023-01-04T01:59:00.835Z,8.30
2023-01-04T02:00:00.850Z,8.31
2023-01-04T02:01:00.851Z,8.31
2023-01-04T02:02:00.962Z,8.33
2023-01-04T02:03:01.113Z,8.34
2023-01-04T02:04:00.896Z,8.34
2023-01-04T02:05:00.853Z,8.34
2023-01-04T02:06:00.764Z,8.34
2023-01-04T02:07:00.785Z,8.34
2023-01-04T02:08:00.736Z,8.34
2023-01-04T02:09:00.720Z,8.33
2023-01-04T02:10:00.728Z,8.31
2023-01-04T02:11:00.750Z,8.33
2023-01-04T02:12:00.692Z,8.31
2023-01-04T02:13:00.713Z,8.31
2023-01-04T02:14:00.667Z,8.30
2023-01-04T02:15:00.746Z,8.31
2023-01-04T02:16:00.777Z,8.31
2023-01-04T02:17:00.675Z,8.28
2023-01-04T02:18:00.671Z,8.27
2023-01-04T02:19:00.622Z,8.26
2023-01-04T02:20:00.635Z,8.24
2023-01-04T02:21:00.613Z,8.24
2023-01-04T02:22:00.603Z,8.24
2023-01-04T02:23:00.586Z,8.20
2023-01-04T02:24:00.591Z,8.19
2023-01-04T02:25:00.577Z,8.19
2023-01-04T02:26:00.536Z,8.19
2023-01-04T02:27:00.522Z,8.18
2023-01-04T02:28:00.625Z,8.18
2023-01-04T02:29:00.526Z,8.16
2023-01-04T02:30:00.527Z,8.18
2023-01-04T02:31:00.603Z,8.16
2023-01-04T02:32:00.492Z,8.18
2023-01-04T02:33:00.483Z,8.18
2023-01-04T02:34:00.467Z,8.18
2023-01-04T02:35:00.466Z,8.15
2023-01-04T02:36:00.567Z,8.15
2023-01-04T02:37:00.470Z,8.15
2023-01-04T02:38:00.417Z,8.15
2023-01-04T02:39:00.438Z,8.16
2023-01-04T02:40:00.436Z,8.15
2023-01-04T02:41:00.380Z,8.16
2023-01-04T02:42:00.384Z,8.15
2023-01-04T02:43:00.379Z,8.16
2023-01-04T02:44:00.366Z,8.16
2023-01-04T02:45:00.372Z,8.16
2023-01-04T02:46:00.321Z,8.18
2023-01-04T02:47:00.493Z,8.19
2023-01-04T02:48:00.308Z,8.19
2023-01-04T02:49:00.340Z,8.20
2023-01-04T02:50:04.571Z,8.20
2023-01-04T02:51:00.318Z,8.19
2023-01-04T02:52:00.291Z,8.20
2023-01-04T02:53:00.287Z,8.23
2023-01-04T02:54:00.242Z,8.23
2023-01-04T02:55:00.263Z,8.24
2023-01-04T02:56:00.258Z,8.20
2023-01-04T02:57:05.154Z,8.20
2023-01-04T02:58:00.213Z,8.23
2023-01-04T02:59:00.212Z,8.23
2023-01-04T03:00:00.230Z,8.24
2023-01-04T03:01:00.190Z,8.20
2023-01-04T03:02:00.380Z,8.23
2023-01-04T03:03:00.342Z,8.24
2023-01-04T03:04:00.219Z,8.23
2023-01-04T03:05:00.170Z,8.26
2023-01-04T03:06:00.131Z,8.24
2023-01-04T03:07:00.174Z,8.26
2023-01-04T03:08:00.121Z,8.27
2023-01-04T03:09:00.131Z,8.27
2023-01-04T03:10:00.071Z,8.26
2023-01-04T03:11:00.094Z,8.27
2023-01-04T03:12:00.102Z,8.27
2023-01-04T03:13:00.095Z,8.28
2023-01-04T03:14:00.037Z,8.31
2023-01-04T03:15:00.089Z,8.28
2023-01-04T03:16:00.036Z,8.30
2023-01-04T03:17:00.013Z,8.31
2023-01-04T03:17:59.994Z,8.31
2023-01-04T03:19:00.030Z,8.36
2023-01-04T03:19:59.966Z,8.36
2023-01-04T03:20:59.993Z,8.36
2023-01-04T03:21:59.930Z,8.37
2023-01-04T03:23:00.003Z,8.36
2023-01-04T03:23:59.912Z,8.37
2023-01-04T03:24:59.941Z,8.37
2023-01-04T03:25:59.914Z,8.38
2023-01-04T03:26:59.956Z,8.38
2023-01-04T03:27:59.898Z,8.41
2023-01-04T03:28:59.906Z,8.41
2023-01-04T03:29:59.962Z,8.42
2023-01-04T03:30:59.925Z,8.44
2023-01-04T03:31:59.827Z,8.45
2023-01-04T03:32:59.832Z,8.45
2023-01-04T03:33:59.861Z,8.48
2023-01-04T03:34:59.815Z,8.48
2023-01-04T03:35:59.842Z,8.51
2023-01-04T03:36:59.790Z,8.52
2023-01-04T03:37:59.765Z,8.52
2023-01-04T03:38:59.791Z,8.52
2023-01-04T03:39:59.859Z,8.53
2023-01-04T03:40:59.735Z,8.55
2023-01-04T03:41:59.718Z,8.55
2023-01-04T03:42:59.743Z,8.55
2023-01-04T03:43:59.724Z,8.53
2023-01-04T03:45:04.317Z,8.55
2023-01-04T03:45:59.710Z,8.55
2023-01-04T03:46:59.724Z,8.56
2023-01-04T03:47:59.680Z,8.56
2023-01-04T03:48:59.752Z,8.58
2023-01-04T03:49:59.684Z,8.58
2023-01-04T03:50:59.675Z,8.58
2023-01-04T03:51:59.648Z,8.60
2023-01-04T03:52:59.657Z,8.58
2023-01-04T03:53:59.615Z,8.58
2023-01-04T03:54:59.639Z,8.60
2023-01-04T03:55:59.608Z,8.60
2023-01-04T03:56:59.608Z,8.60
2023-01-04T03:57:59.580Z,8.58
2023-01-04T03:58:59.576Z,8.60
2023-01-04T03:59:59.526Z,8.61
2023-01-04T04:00:59.581Z,8.60
2023-01-04T04:01:59.556Z,8.61
2023-01-04T04:02:59.546Z,8.61
2023-01-04T04:03:59.539Z,8.61
2023-01-04T04:04:59.500Z,8.61
2023-01-04T04:05:59.483Z,8.63
2023-01-04T04:06:59.479Z,8.64
2023-01-04T04:07:59.449Z,8.66
2023-01-04T04:08:59.459Z,8.67
2023-01-04T04:09:59.458Z,8.69
2023-01-04T04:10:59.437Z,8.70
2023-01-04T04:11:59.438Z,8.71
2023-01-04T04:12:59.408Z,8.71
2023-01-04T04:13:59.425Z,8.74
2023-01-04T04:14:59.400Z,8.73
2023-01-04T04:15:59.378Z,8.73
2023-01-04T04:16:59.488Z,8.73
2023-01-04T04:17:59.436Z,8.73
2023-01-04T04:19:03.238Z,8.73
2023-01-04T04:19:59.327Z,8.74
2023-01-04T04:20:59.351Z,8.74
2023-01-04T04:21:59.366Z,8.79
2023-01-04T04:22:59.344Z,8.79
2023-01-04T04:23:59.312Z,8.79
2023-01-04T04:24:59.295Z,8.82
2023-01-04T04:25:59.248Z,8.82
2023-01-04T04:26:59.352Z,8.84
2023-01-04T04:27:59.226Z,8.82
2023-01-04T04:28:59.245Z,8.82
2023-01-04T04:29:59.208Z,8.85
2023-01-04T04:30:59.211Z,8.84
2023-01-04T04:31:59.318Z,8.85
2023-01-04T04:32:59.210Z,8.87
2023-01-04T04:33:59.152Z,8.87
2023-01-04T04:34:59.180Z,8.88
2023-01-04T04:35:59.151Z,8.88
2023-01-04T04:36:59.137Z,8.88
2023-01-04T04:37:59.113Z,8.89
2023-01-04T04:38:59.126Z,8.89
2023-01-04T04:39:59.126Z,8.91
2023-01-04T04:40:59.097Z,8.91
2023-01-04T04:41:59.081Z,8.92
2023-01-04T04:42:59.092Z,8.94
2023-01-04T04:43:59.091Z,8.92
2023-01-04T04:44:59.076Z,8.92
2023-01-04T04:45:59.103Z,8.94
2023-01-04T04:46:59.073Z,8.94
2023-01-04T04:47:59.127Z,8.94
2023-01-04T04:48:59.033Z,8.97
2023-01-04T04:49:58.994Z,8.99
2023-01-04T04:50:58.988Z,8.99
2023-01-04T04:51:59.003Z,9.02
2023-01-04T04:52:59.093Z,9.00
2023-01-04T04:53:58.965Z,9.02
2023-01-04T04:54:58.989Z,9.03
2023-01-04T04:55:58.944Z,9.03
2023-01-04T04:56:58.907Z,9.03
2023-01-04T04:57:58.920Z,9.04
2023-01-04T04:58:58.909Z,9.04
2023-01-04T04:59:58.915Z,9.04
2023-01-04T05:00:58.951Z,9.08
2023-01-04T05:01:59.093Z,9.06
2023-01-04T05:02:59.039Z,9.06
2023-01-04T05:03:58.853Z,9.08
2023-01-04T05:04:58.853Z,9.11
2023-01-04T05:05:58.847Z,9.14
2023-01-04T05:06:58.835Z,9.14
2023-01-04T05:07:58.828Z,9.14
2023-01-04T05:08:58.825Z,9.14
2023-01-04T05:09:58.787Z,9.16
2023-01-04T05:10:58.790Z,9.16
2023-01-04T05:11:58.813Z,9.18
2023-01-04T05:12:58.748Z,9.18
2023-01-04T05:13:58.764Z,9.18
2023-01-04T05:14:58.787Z,9.22
2023-01-04T05:15:58.841Z,9.26
2023-01-04T05:16:58.835Z,9.23
2023-01-04T05:17:58.767Z,9.25
2023-01-04T05:18:58.715Z,9.26
2023-01-04T05:19:58.682Z,9.28
2023-01-04T05:20:58.696Z,9.29
2023-01-04T05:21:58.657Z,9.31
2023-01-04T05:22:58.691Z,9.32
2023-01-04T05:23:58.656Z,9.34
2023-01-04T05:24:58.616Z,9.34
2023-01-04T05:25:58.611Z,9.34
2023-01-04T05:26:58.606Z,9.36
2023-01-04T05:27:58.633Z,9.37
2023-01-04T05:28:58.612Z,9.40
2023-01-04T05:29:58.601Z,9.39
2023-01-04T05:30:58.582Z,9.41
2023-01-04T05:31:58.676Z,9.41
2023-01-04T05:32:58.547Z,9.44
2023-01-04T05:33:58.573Z,9.47
2023-01-04T05:34:58.506Z,9.48
2023-01-04T05:35:58.506Z,9.51
2023-01-04T05:36:58.491Z,9.55
2023-01-04T05:37:58.492Z,9.56
2023-01-04T05:38:58.510Z,9.58
2023-01-04T05:39:58.478Z,9.62
2023-01-04T05:40:58.454Z,9.62
2023-01-04T05:41:58.448Z,9.66
2023-01-04T05:42:58.439Z,9.66
2023-01-04T05:43:58.447Z,9.66
2023-01-04T05:44:58.425Z,9.65
2023-01-04T05:45:58.502Z,9.66
2023-01-04T05:46:58.400Z,9.66
2023-01-04T05:47:58.422Z,9.68
2023-01-04T05:48:58.367Z,9.72
2023-01-04T05:49:58.379Z,9.69
2023-01-04T05:50:58.374Z,9.69
2023-01-04T05:51:58.392Z,9.72
2023-01-04T05:52:58.357Z,9.72
2023-01-04T05:53:58.336Z,9.73
2023-01-04T05:54:58.377Z,9.74
2023-01-04T05:55:58.380Z,9.76
2023-01-04T05:56:58.490Z,9.74
2023-01-04T05:57:58.313Z,9.76
2023-01-04T05:58:58.398Z,9.77
2023-01-04T05:59:58.263Z,9.77
2023-01-04T06:00:58.299Z,9.79
2023-01-04T06:01:58.409Z,9.79
2023-01-04T06:02:58.309Z,9.79
2023-01-04T06:03:58.252Z,9.82
2023-01-04T06:04:59.303Z,9.82
2023-01-04T06:05:58.206Z,9.83
2023-01-04T06:06:58.211Z,9.83
2023-01-04T06:07:58.174Z,9.82
2023-01-04T06:08:58.157Z,9.84
2023-01-04T06:09:58.178Z,9.86
2023-01-04T06:10:58.182Z,9.86
2023-01-04T06:11:58.163Z,9.84
2023-01-04T06:12:58.137Z,9.87
2023-01-04T06:13:58.162Z,9.87
2023-01-04T06:14:58.126Z,9.87
2023-01-04T06:15:58.121Z,9.89
2023-01-04T06:16:58.204Z,9.91
2023-01-04T06:17:58.083Z,9.94
2023-01-04T06:18:58.047Z,9.97
2023-01-04T06:19:58.096Z,9.98
2023-01-04T06:20:58.075Z,10.01
2023-01-04T06:21:58.037Z,10.01
2023-01-04T06:22:57.996Z,10.02
2023-01-04T06:23:58.049Z,10.05
2023-01-04T06:24:58.016Z,10.04
2023-01-04T06:25:57.993Z,10.04
2023-01-04T06:26:57.987Z,10.04
2023-01-04T06:27:57.978Z,10.04
2023-01-04T06:28:57.972Z,10.07
2023-01-04T06:29:57.978Z,10.07
2023-01-04T06:30:58.047Z,10.07
2023-01-04T06:31:57.940Z,10.07
2023-01-04T06:32:57.946Z,10.09
2023-01-04T06:33:57.911Z,10.09
2023-01-04T06:34:57.900Z,10.07
2023-01-04T06:35:57.914Z,10.05
2023-01-04T06:36:57.950Z,10.09
2023-01-04T06:37:57.920Z,10.07
2023-01-04T06:38:57.878Z,10.09
2023-01-04T06:39:57.861Z,10.09
2023-01-04T06:40:57.822Z,10.05
2023-01-04T06:42:03.955Z,10.09
2023-01-04T06:42:57.834Z,10.05
2023-01-04T06:43:57.831Z,10.07
2023-01-04T06:44:57.800Z,10.07
2023-01-04T06:45:57.915Z,10.07
2023-01-04T06:46:57.810Z,10.09
2023-01-04T06:47:57.804Z,10.05
2023-01-04T06:48:57.782Z,10.09
2023-01-04T06:49:57.834Z,10.10
2023-01-04T06:50:57.817Z,10.16
2023-01-04T06:51:57.820Z,10.17
2023-01-04T06:52:57.708Z,10.19
2023-01-04T06:53:57.752Z,10.20
2023-01-04T06:54:57.736Z,10.23
2023-01-04T06:55:57.747Z,10.25
2023-01-04T06:56:57.709Z,10.26
2023-01-04T06:57:59.748Z,10.23
2023-01-04T06:58:57.651Z,10.26
2023-01-04T06:59:57.719Z,10.25
2023-01-04T07:00:57.683Z,10.28
2023-01-04T07:01:57.774Z,10.28
2023-01-04T07:03:14.114Z,10.30
2023-01-04T07:03:57.728Z,10.30
2023-01-04T07:04:57.635Z,10.30
2023-01-04T07:05:57.578Z,10.31
2023-01-04T07:06:57.556Z,10.31
2023-01-04T07:08:02.464Z,10.31
2023-01-04T07:08:57.545Z,10.31
2023-01-04T07:09:57.560Z,10.34
2023-01-04T07:10:57.515Z,10.34
2023-01-04T07:11:57.512Z,10.34
2023-01-04T07:12:57.493Z,10.35
2023-01-04T07:13:57.597Z,10.33
2023-01-04T07:14:57.496Z,10.37
2023-01-04T07:15:57.504Z,10.38
2023-01-04T07:16:57.414Z,10.40
2023-01-04T07:17:57.572Z,10.40
2023-01-04T07:18:57.401Z,10.41
2023-01-04T07:19:57.428Z,10.41
2023-01-04T07:20:57.362Z,10.41
2023-01-04T07:21:57.356Z,10.41
2023-01-04T07:22:57.368Z,10.40
2023-01-04T07:23:57.333Z,10.40
2023-01-04T07:24:57.336Z,10.40
2023-01-04T07:25:57.379Z,10.41
2023-01-04T07:26:57.323Z,10.41
2023-01-04T07:27:57.315Z,10.40
2023-01-04T07:28:57.283Z,10.42
2023-01-04T07:29:57.294Z,10.42
2023-01-04T07:30:57.295Z,10.41
2023-01-04T07:31:57.274Z,10.41
2023-01-04T07:32:57.256Z,10.42
2023-01-04T07:33:57.247Z,10.41
2023-01-04T07:34:57.224Z,10.42
2023-01-04T07:35:57.227Z,10.44
2023-01-04T07:36:57.188Z,10.44
2023-01-04T07:37:59.107Z,10.46
2023-01-04T07:38:57.209Z,10.48
2023-01-04T07:39:57.174Z,10.48
2023-01-04T07:40:57.428Z,10.48
2023-01-04T07:41:57.171Z,10.49
2023-01-04T07:42:57.438Z,10.49
2023-01-04T07:43:57.114Z,10.49
2023-01-04T07:44:57.287Z,10.48
2023-01-04T07:45:57.192Z,10.49
2023-01-04T07:46:57.188Z,10.51
2023-01-04T07:47:57.086Z,10.53
2023-01-04T07:48:57.078Z,10.53
2023-01-04T07:49:57.116Z,10.53
2023-01-04T07:50:57.083Z,10.54
2023-01-04T07:51:57.073Z,10.54
2023-01-04T07:52:57.028Z,10.56
2023-01-04T07:53:57.031Z,10.56
2023-01-04T07:54:57.043Z,10.57
2023-01-04T07:55:57.003Z,10.59
2023-01-04T07:56:57.052Z,10.61
2023-01-04T07:57:57.045Z,10.63
2023-01-04T07:58:57.097Z,10.63
2023-01-04T07:59:57.011Z,10.63
2023-01-04T08:00:56.972Z,10.63
2023-01-04T08:01:57.121Z,10.61
2023-01-04T08:02:57.204Z,10.61
2023-01-04T08:03:56.940Z,10.61
2023-01-04T08:04:57.032Z,10.60
2023-01-04T08:05:56.910Z,10.63
2023-01-04T08:06:56.894Z,10.63
2023-01-04T08:07:56.901Z,10.67
2023-01-04T08:08:56.856Z,10.64
2023-01-04T08:09:56.883Z,10.64
2023-01-04T08:10:56.864Z,10.67
2023-01-04T08:11:56.906Z,10.64
2023-01-04T08:12:56.821Z,10.67
2023-01-04T08:13:56.819Z,10.64
2023-01-04T08:14:56.855Z,10.67
2023-01-04T08:15:56.972Z,10.68
2023-01-04T08:16:57.272Z,10.69
2023-01-04T08:17:57.456Z,10.68
2023-01-04T08:18:56.923Z,10.68
2023-01-04T08:19:57.877Z,10.69
2023-01-04T08:20:58.735Z,10.68
2023-01-04T08:21:56.737Z,10.69
2023-01-04T08:22:56.796Z,10.72
2023-01-04T08:23:56.737Z,10.75
2023-01-04T08:24:56.693Z,10.76
2023-01-04T08:25:56.717Z,10.78
2023-01-04T08:26:56.731Z,10.75
2023-01-04T08:27:56.660Z,10.75
2023-01-04T08:28:56.767Z,10.74
2023-01-04T08:29:56.655Z,10.74
2023-01-04T08:30:56.699Z,10.74
2023-01-04T08:31:56.617Z,10.74
2023-01-04T08:32:56.623Z,10.78
2023-01-04T08:33:56.586Z,10.78
2023-01-04T08:34:56.633Z,10.79
2023-01-04T08:35:56.598Z,10.78
2023-01-04T08:36:56.572Z,10.79
2023-01-04T08:38:13.129Z,10.84
2023-01-04T08:39:00.015Z,10.82
2023-01-04T08:39:56.569Z,10.79
2023-01-04T08:40:59.675Z,10.81
2023-01-04T08:41:59.462Z,10.82
2023-01-04T08:42:56.525Z,10.82
2023-01-04T08:43:56.486Z,10.84
2023-01-04T08:44:59.531Z,10.84
2023-01-04T08:45:56.551Z,10.86
2023-01-04T08:46:56.716Z,10.86
2023-01-04T08:47:56.502Z,10.89
2023-01-04T08:48:56.437Z,10.89
2023-01-04T08:49:56.475Z,10.90
2023-01-04T08:50:56.417Z,10.93
2023-01-04T08:51:56.430Z,10.96
2023-01-04T08:52:56.490Z,10.96
2023-01-04T08:53:56.414Z,11.02
2023-01-04T08:54:56.393Z,11.05
2023-01-04T08:55:56.397Z,11.07
2023-01-04T08:56:56.361Z,11.05
2023-01-04T08:57:56.389Z,11.05
2023-01-04T08:58:56.352Z,11.05
2023-01-04T08:59:56.353Z,11.04
2023-01-04T09:00:56.305Z,11.04
2023-01-04T09:02:02.683Z,11.04
2023-01-04T09:02:56.651Z,11.04
2023-01-04T09:03:56.289Z,11.00
2023-01-04T09:04:56.419Z,11.00
2023-01-04T09:05:56.268Z,11.00
2023-01-04T09:06:56.258Z,11.00
2023-01-04T09:07:56.243Z,11.02
2023-01-04T09:08:56.252Z,11.00
2023-01-04T09:09:56.240Z,11.00
2023-01-04T09:10:56.248Z,11.00
2023-01-04T09:11:56.235Z,11.00
2023-01-04T09:12:56.204Z,11.00
2023-01-04T09:13:59.713Z,10.99
2023-01-04T09:14:56.219Z,10.99
2023-01-04T09:15:56.212Z,10.96
2023-01-04T09:16:56.211Z,10.99
2023-01-04T09:18:31.449Z,10.96
2023-01-04T09:18:56.141Z,10.94
2023-01-04T09:19:56.137Z,10.94
2023-01-04T09:20:56.092Z,10.94
2023-01-04T09:21:56.134Z,10.94
2023-01-04T09:22:56.100Z,10.96
2023-01-04T09:23:56.100Z,10.97
2023-01-04T09:24:56.100Z,10.97
2023-01-04T09:25:56.087Z,10.99
2023-01-04T09:26:56.055Z,11.00
2023-01-04T09:27:56.040Z,11.02
2023-01-04T09:28:56.018Z,11.02
2023-01-04T09:29:56.004Z,11.02
2023-01-04T09:30:56.055Z,10.99
2023-01-04T09:31:56.117Z,11.04
2023-01-04T09:32:55.990Z,11.05
2023-01-04T09:34:55.958Z,11.10
2023-01-04T09:35:55.928Z,11.08
2023-01-04T09:36:55.960Z,11.10
2023-01-04T09:37:55.937Z,11.10
2023-01-04T09:38:55.969Z,11.10
2023-01-04T09:39:55.923Z,11.10
2023-01-04T09:40:55.887Z,11.10
2023-01-04T09:41:55.908Z,11.11
2023-01-04T09:43:19.663Z,11.11
2023-01-04T09:43:55.873Z,11.11
2023-01-04T09:45:25.914Z,11.10
2023-01-04T09:45:55.836Z,11.12
2023-01-04T09:46:55.948Z,11.12
2023-01-04T09:47:55.879Z,11.12
2023-01-04T09:48:55.848Z,11.14
2023-01-04T09:49:55.816Z,11.12
2023-01-04T09:50:55.855Z,11.12
2023-01-04T09:51:55.786Z,11.14
2023-01-04T09:52:55.791Z,11.14
2023-01-04T09:53:55.756Z,11.14
2023-01-04T09:54:59.004Z,11.14
2023-01-04T09:55:55.755Z,11.14
2023-01-04T09:56:55.738Z,11.15
2023-01-04T09:57:55.702Z,11.17
2023-01-04T09:58:55.726Z,11.15
2023-01-04T09:59:55.721Z,11.15
2023-01-04T10:00:55.771Z,11.12
2023-01-04T10:01:55.818Z,11.14
2023-01-04T10:02:56.221Z,11.12
2023-01-04T10:03:55.680Z,11.11
2023-01-04T10:04:55.725Z,11.10
2023-01-04T10:05:55.612Z,11.10
2023-01-04T10:07:00.925Z,11.10
2023-01-04T10:07:55.653Z,11.10
2023-01-04T10:08:55.606Z,11.11
2023-01-04T10:09:55.625Z,11.10
2023-01-04T10:10:55.585Z,11.11
2023-01-04T10:11:55.575Z,11.11
2023-01-04T10:12:59.817Z,11.14
2023-01-04T10:13:55.560Z,11.14
2023-01-04T10:14:55.607Z,11.17
2023-01-04T10:15:55.568Z,11.18
2023-01-04T10:17:13.633Z,11.22
2023-01-04T10:19:23.617Z,11.25
2023-01-04T10:21:34.007Z,11.30
2023-01-04T10:22:30.918Z,11.27
2023-01-04T10:23:30.883Z,11.29
2023-01-04T10:24:30.901Z,11.29
2023-01-04T10:25:30.884Z,11.27
2023-01-04T10:26:30.890Z,11.25
2023-01-04T10:27:30.856Z,11.26
2023-01-04T10:28:30.847Z,11.27
2023-01-04T10:29:30.923Z,11.26
2023-01-04T10:30:30.835Z,11.27
2023-01-04T10:31:40.347Z,11.29
2023-01-04T10:32:30.856Z,11.29
2023-01-04T10:33:30.775Z,11.26
2023-01-04T10:34:30.830Z,11.27
2023-01-04T10:35:30.780Z,11.27
2023-01-04T10:36:30.800Z,11.26
2023-01-04T10:37:30.759Z,11.26
2023-01-04T10:38:30.731Z,11.26
2023-01-04T10:39:32.999Z,11.25
2023-01-04T10:40:30.725Z,11.25
2023-01-04T10:41:30.756Z,11.25
2023-01-04T10:42:30.712Z,11.26
2023-01-04T10:43:30.679Z,11.25
2023-01-04T10:44:30.687Z,11.27
2023-01-04T10:45:30.649Z,11.29
2023-01-04T10:46:30.668Z,11.29
2023-01-04T10:47:30.650Z,11.30
2023-01-04T10:48:30.668Z,11.32
2023-01-04T10:49:30.607Z,11.32
2023-01-04T10:50:30.600Z,11.32
2023-01-04T10:51:30.672Z,11.35
2023-01-04T10:52:30.608Z,11.36
2023-01-04T10:53:30.605Z,11.35
2023-01-04T10:54:30.572Z,11.37
2023-01-04T10:55:30.606Z,11.37
2023-01-04T10:56:30.543Z,11.37
2023-01-04T10:57:30.542Z,11.37
2023-01-04T10:58:30.570Z,11.41
2023-01-04T10:59:30.657Z,11.41
2023-01-04T11:00:30.642Z,11.43
2023-01-04T11:01:30.743Z,11.44
2023-01-04T11:02:30.618Z,11.44
2023-01-04T11:03:30.583Z,11.44
2023-01-04T11:04:30.473Z,11.43
2023-01-04T11:05:30.473Z,11.41
2023-01-04T11:06:30.451Z,11.43
2023-01-04T11:07:30.455Z,11.45
2023-01-04T11:08:30.414Z,11.47
2023-01-04T11:09:30.396Z,11.47
2023-01-04T11:10:30.408Z,11.47
2023-01-04T11:11:30.391Z,11.47
2023-01-04T11:12:30.362Z,11.48
2023-01-04T11:13:30.386Z,11.45
2023-01-04T11:14:36.828Z,11.48
2023-01-04T11:15:30.410Z,11.47
2023-01-04T11:16:30.435Z,11.45
2023-01-04T11:17:30.325Z,11.47
2023-01-04T11:18:30.302Z,11.45
2023-01-04T11:19:30.336Z,11.45
2023-01-04T11:20:34.502Z,11.45
2023-01-04T11:21:30.278Z,11.47
2023-01-04T11:22:30.321Z,11.47
2023-01-04T11:23:30.308Z,11.48
2023-01-04T11:24:33.000Z,11.50
2023-01-04T11:25:35.480Z,11.48
2023-01-04T11:26:30.315Z,11.47
2023-01-04T11:27:30.247Z,11.48
2023-01-04T11:28:30.244Z,11.48
2023-01-04T11:29:30.206Z,11.45
2023-01-04T11:30:30.229Z,11.45
2023-01-04T11:31:30.250Z,11.45
2023-01-04T11:32:30.200Z,11.45
2023-01-04T11:33:30.180Z,11.45
2023-01-04T11:34:30.149Z,11.47
2023-01-04T11:35:31.976Z,11.47
2023-01-04T11:36:30.123Z,11.47
2023-01-04T11:37:30.133Z,11.47
2023-01-04T11:38:30.097Z,11.47
2023-01-04T11:39:30.118Z,11.47
2023-01-04T11:40:30.077Z,11.47
2023-01-04T11:41:30.082Z,11.48
2023-01-04T11:42:30.050Z,11.50
2023-01-04T11:43:30.104Z,11.50
2023-01-04T11:44:30.030Z,11.48
2023-01-04T11:45:30.089Z,11.48
2023-01-04T11:46:30.213Z,11.45
2023-01-04T11:47:33.279Z,11.48
2023-01-04T11:48:30.007Z,11.50
2023-01-04T11:49:29.977Z,11.51
2023-01-04T11:50:29.971Z,11.52
2023-01-04T11:51:30.011Z,11.52
2023-01-04T11:52:29.984Z,11.54
2023-01-04T11:53:30.046Z,11.54
2023-01-04T11:54:29.940Z,11.55
2023-01-04T11:55:29.915Z,11.55
2023-01-04T11:56:29.900Z,11.55
2023-01-04T11:57:29.920Z,11.55
2023-01-04T11:58:29.930Z,11.57
2023-01-04T11:59:29.888Z,11.57
2023-01-04T12:00:29.873Z,11.55
2023-01-04T12:01:29.911Z,11.59
2023-01-04T12:03:29.890Z,11.57
2023-01-04T12:04:32.522Z,11.59
2023-01-04T12:05:30.647Z,11.59
2023-01-04T12:06:29.799Z,11.59
2023-01-04T12:07:29.913Z,11.60
2023-01-04T12:08:29.764Z,11.60
2023-01-04T12:09:29.779Z,11.62
2023-01-04T12:10:29.907Z,11.60
2023-01-04T12:11:29.770Z,11.59
2023-01-04T12:12:29.744Z,11.62
2023-01-04T12:13:29.763Z,11.60
2023-01-04T12:14:29.761Z,11.60
2023-01-04T12:15:29.801Z,11.63
2023-01-04T12:16:29.699Z,11.63
2023-01-04T12:17:29.737Z,11.65
2023-01-04T12:18:29.717Z,11.66
2023-01-04T12:19:29.668Z,11.66
2023-01-04T12:20:29.687Z,11.68
2023-01-04T12:21:29.633Z,11.69
2023-01-04T12:22:29.656Z,11.70
2023-01-04T12:23:29.627Z,11.70
2023-01-04T12:24:29.645Z,11.70
2023-01-04T12:25:29.607Z,11.70
2023-01-04T12:26:29.579Z,11.72
2023-01-04T12:27:29.663Z,11.72
2023-01-04T12:28:29.625Z,11.72
2023-01-04T12:29:29.549Z,11.75
2023-01-04T12:30:29.546Z,11.73
2023-01-04T12:31:29.572Z,11.73
2023-01-04T12:32:29.551Z,11.75
2023-01-04T12:33:29.566Z,11.75
2023-01-04T12:34:29.525Z,11.77
2023-01-04T12:35:29.508Z,11.78
2023-01-04T12:36:29.511Z,11.80
2023-01-04T12:37:29.529Z,11.81
2023-01-04T12:38:29.485Z,11.81
2023-01-04T12:39:29.590Z,11.83
2023-01-04T12:40:29.443Z,11.81
2023-01-04T12:41:29.425Z,11.83
2023-01-04T12:42:29.455Z,11.83
2023-01-04T12:43:29.430Z,11.83
2023-01-04T12:44:29.405Z,11.83
2023-01-04T12:45:29.411Z,11.84
2023-01-04T12:46:29.435Z,11.84
2023-01-04T12:47:29.435Z,11.87
2023-01-04T12:48:29.367Z,11.87
2023-01-04T12:49:29.362Z,11.88
2023-01-04T12:50:29.492Z,11.88
2023-01-04T12:51:32.302Z,11.90
2023-01-04T12:52:37.767Z,11.88
2023-01-04T12:53:30.648Z,11.88
2023-01-04T12:54:29.328Z,11.91
2023-01-04T12:55:29.312Z,11.88
2023-01-04T12:56:29.329Z,11.91
2023-01-04T12:57:32.048Z,11.91
2023-01-04T12:59:23.557Z,11.91
2023-01-04T12:59:29.267Z,11.91
2023-01-04T13:00:29.242Z,11.91
2023-01-04T13:01:29.557Z,11.91
2023-01-04T13:02:29.479Z,11.94
2023-01-04T13:03:29.251Z,11.95
2023-01-04T13:04:29.206Z,11.94
2023-01-04T13:05:55.566Z,11.97
2023-01-04T13:06:29.186Z,11.97
2023-01-04T13:07:29.174Z,11.99
2023-01-04T13:08:29.151Z,11.99